Terminal Aerodrome Forecast
Issued by NWS Midland/Odessa, TX

Home | Current Version | Previous Version | Text Only | Print | Product List | Glossary On
Versions: 1 2 3 4 5 6 7 8 9 10 11 12 13 14 15 16 17 18 19 20 21 22 23 24 25 26 27 28
418
FTUS44 KMAF 260530
TAFMAF
TAF
KMAF 260530Z 2606/2706 12012G20KT P6SM SCT070 BKN250
      TEMPO 2607/2610 VRB25G35KT 2SM TSRA BKN050CB
     FM261300 08012KT P6SM BKN050 BKN120
      TEMPO 2613/2616 BKN020=

USA.gov is the U.S. government's official web portal to all federal, state and local government web resources and services.